createdAt,value
2018-10-01T00:01:39.675Z,6.73
2018-10-01T00:04:08.303Z,5.97
2018-10-01T00:06:37.809Z,6.23
2018-10-01T00:09:07.630Z,6.87
2018-10-01T00:11:36.392Z,8.90
2018-10-01T00:14:05.329Z,5.80
2018-10-01T00:16:34.953Z,8.43
2018-10-01T00:19:08.411Z,9.63
2018-10-01T00:21:43.156Z,8.57
2018-10-01T00:24:12.458Z,5.50
2018-10-01T00:26:41.175Z,4.93
2018-10-01T00:29:10.459Z,7.10
2018-10-01T00:31:39.016Z,4.37
2018-10-01T00:34:07.721Z,7.73
2018-10-01T00:36:36.389Z,4.97
2018-10-01T00:39:07.742Z,4.23
2018-10-01T00:41:36.328Z,6.97
2018-10-01T00:44:05.754Z,7.37
2018-10-01T00:46:34.609Z,5.23
2018-10-01T00:49:04.113Z,6.10
2018-10-01T00:51:32.856Z,4.33
2018-10-01T00:54:01.621Z,4.33
2018-10-01T00:56:30.408Z,3.70
2018-10-01T00:58:59.519Z,4.87
2018-10-01T01:01:28.687Z,5.37
2018-10-01T01:03:57.297Z,4.17
2018-10-01T01:06:26.458Z,8.10
2018-10-01T01:08:56.174Z,13.17
2018-10-01T01:11:25.181Z,11.53
2018-10-01T01:13:53.845Z,16.27
2018-10-01T01:16:22.630Z,11.10
2018-10-01T01:18:52.602Z,10.30
2018-10-01T01:21:21.989Z,7.07
2018-10-01T01:23:50.990Z,8.07
2018-10-01T01:26:20.186Z,7.97
2018-10-01T01:28:48.772Z,10.63
2018-10-01T01:31:17.571Z,8.57
2018-10-01T01:33:46.222Z,5.87
2018-10-01T01:36:15.313Z,7.80
2018-10-01T01:38:44.131Z,7.60
2018-10-01T01:41:13.462Z,5.10
2018-10-01T01:43:42.276Z,10.50
2018-10-01T01:46:11.537Z,11.33
2018-10-01T01:48:40.494Z,9.47
2018-10-01T01:51:09.489Z,6.53
2018-10-01T01:53:38.395Z,9.30
2018-10-01T01:56:07.216Z,5.43
2018-10-01T01:58:36.497Z,7.87
2018-10-01T02:01:06.081Z,9.07
2018-10-01T02:03:34.731Z,7.80
2018-10-01T02:06:03.483Z,9.00
2018-10-01T02:08:32.140Z,9.03
2018-10-01T02:11:01.482Z,5.30
2018-10-01T02:13:31.092Z,6.23
2018-10-01T02:15:59.782Z,5.87
2018-10-01T02:18:29.220Z,6.27
2018-10-01T02:20:58.394Z,7.13
2018-10-01T02:23:26.974Z,10.37
2018-10-01T02:25:55.600Z,4.90
2018-10-01T02:28:24.394Z,8.77
2018-10-01T02:30:53.178Z,11.03
2018-10-01T02:33:21.824Z,7.43
2018-10-01T02:35:50.444Z,9.30
2018-10-01T02:38:19.102Z,7.17
2018-10-01T02:40:48.476Z,5.20
2018-10-01T02:43:17.201Z,9.23
2018-10-01T02:45:45.885Z,7.80
2018-10-01T02:48:14.628Z,5.67
2018-10-01T02:50:43.368Z,10.63
2018-10-01T02:53:17.359Z,11.20
2018-10-01T02:55:46.070Z,7.27
2018-10-01T02:58:15.002Z,11.53
2018-10-01T03:00:43.526Z,5.97
2018-10-01T03:03:12.317Z,5.43
2018-10-01T03:05:41.007Z,7.57
2018-10-01T03:08:09.615Z,13.00
2018-10-01T03:10:38.320Z,8.30
2018-10-01T03:13:07.325Z,8.20
2018-10-01T03:15:35.994Z,8.87
2018-10-01T03:18:05.993Z,10.77
2018-10-01T03:20:35.238Z,5.60
2018-10-01T03:23:04.485Z,7.27
2018-10-01T03:25:33.010Z,9.33
2018-10-01T03:28:01.463Z,8.03
2018-10-01T03:30:30.434Z,8.93
2018-10-01T03:32:59.031Z,7.70
2018-10-01T03:35:27.528Z,7.23
2018-10-01T03:37:57.245Z,8.83
2018-10-01T03:40:26.731Z,8.10
2018-10-01T03:42:55.305Z,6.13
2018-10-01T03:45:23.938Z,10.97
2018-10-01T03:47:52.540Z,7.93
2018-10-01T03:50:21.039Z,6.50
2018-10-01T03:52:50.000Z,8.97
2018-10-01T03:55:18.688Z,10.87
2018-10-01T03:57:47.670Z,10.33
2018-10-01T04:00:16.486Z,7.97
2018-10-01T04:02:45.154Z,8.70
2018-10-01T04:05:13.595Z,9.53
2018-10-01T04:07:42.686Z,6.07
2018-10-01T04:10:11.472Z,8.33
2018-10-01T04:12:40.093Z,7.97
2018-10-01T04:15:08.818Z,9.77
2018-10-01T04:17:37.540Z,13.23
2018-10-01T04:20:06.819Z,11.20
2018-10-01T04:22:37.551Z,7.20
2018-10-01T04:25:07.556Z,5.13
2018-10-01T04:27:36.601Z,7.23
2018-10-01T04:30:08.089Z,7.77
2018-10-01T04:32:38.396Z,8.77
2018-10-01T04:35:07.174Z,7.57
2018-10-01T04:37:35.657Z,7.67
2018-10-01T04:40:04.209Z,7.63
2018-10-01T04:42:33.635Z,8.70
2018-10-01T04:45:02.258Z,4.60
2018-10-01T04:47:31.644Z,11.67
2018-10-01T04:50:01.479Z,11.50
2018-10-01T04:52:30.125Z,8.70
2018-10-01T04:54:59.217Z,5.37
2018-10-01T04:57:28.486Z,8.53
2018-10-01T04:59:57.282Z,8.13
2018-10-01T05:02:26.466Z,10.10
2018-10-01T05:04:55.160Z,10.37
2018-10-01T05:07:23.693Z,8.60
2018-10-01T05:09:52.543Z,7.87
2018-10-01T05:12:21.277Z,12.23
2018-10-01T05:14:50.324Z,9.80
2018-10-01T05:17:19.091Z,8.17
2018-10-01T05:19:47.875Z,14.73
2018-10-01T05:22:16.599Z,8.77
2018-10-01T05:24:45.205Z,11.90
2018-10-01T05:27:13.901Z,7.57
2018-10-01T05:29:42.502Z,13.57
2018-10-01T05:32:11.125Z,12.77
2018-10-01T05:34:39.605Z,14.90
2018-10-01T05:37:08.930Z,14.93
2018-10-01T05:39:37.628Z,14.00
2018-10-01T05:42:07.101Z,13.90
2018-10-01T05:44:35.744Z,12.67
2018-10-01T05:47:04.988Z,14.53
2018-10-01T05:49:33.729Z,16.90
2018-10-01T05:52:02.472Z,20.80
2018-10-01T05:54:31.091Z,15.20
2018-10-01T05:56:59.594Z,13.07
2018-10-01T05:59:28.052Z,17.63
2018-10-01T06:01:56.621Z,10.70
2018-10-01T06:04:25.262Z,9.97
2018-10-01T06:06:53.746Z,15.77
2018-10-01T06:09:22.306Z,13.20
2018-10-01T06:11:50.792Z,17.03
2018-10-01T06:14:19.885Z,14.27
2018-10-01T06:16:48.326Z,20.47
2018-10-01T06:19:16.784Z,15.00
2018-10-01T06:21:45.337Z,13.67
2018-10-01T06:24:14.364Z,21.97
2018-10-01T06:26:42.822Z,17.37
2018-10-01T06:29:12.101Z,16.63
2018-10-01T06:31:40.570Z,20.33
2018-10-01T06:34:09.094Z,15.53
2018-10-01T06:36:37.541Z,13.73
2018-10-01T06:39:08.259Z,15.20
2018-10-01T06:41:36.920Z,18.53
2018-10-01T06:44:05.362Z,21.00
2018-10-01T06:46:33.939Z,15.27
2018-10-01T06:49:02.631Z,23.70
2018-10-01T06:51:31.218Z,22.60
2018-10-01T06:54:00.850Z,22.47
2018-10-01T06:56:30.962Z,18.47
2018-10-01T06:58:59.618Z,20.03
2018-10-01T07:02:55.328Z,17.93
2018-10-01T07:05:24.079Z,16.63
2018-10-01T07:07:52.837Z,15.73
2018-10-01T07:10:21.405Z,20.57
2018-10-01T07:12:50.079Z,20.90
2018-10-01T07:15:19.263Z,15.03
2018-10-01T07:17:48.712Z,20.83
2018-10-01T07:20:17.366Z,16.97
2018-10-01T07:22:46.496Z,19.93
2018-10-01T07:25:15.067Z,17.83
2018-10-01T07:27:43.613Z,17.03
2018-10-01T07:30:12.429Z,19.93
2018-10-01T07:32:41.217Z,20.33
2018-10-01T07:35:09.884Z,17.20
2018-10-01T07:37:39.188Z,19.77
2018-10-01T07:40:08.462Z,17.37
2018-10-01T07:42:37.052Z,14.93
2018-10-01T07:45:05.974Z,16.20
2018-10-01T07:47:35.962Z,19.63
2018-10-01T07:50:05.061Z,18.63
2018-10-01T07:52:34.997Z,22.50
2018-10-01T07:55:04.214Z,20.73
2018-10-01T07:57:32.892Z,15.73
2018-10-01T08:00:02.491Z,18.00
2018-10-01T08:02:31.498Z,17.00
2018-10-01T08:05:00.660Z,18.27
2018-10-01T08:07:30.275Z,20.73
2018-10-01T08:09:59.473Z,19.67
2018-10-01T08:12:28.081Z,18.37
2018-10-01T08:14:57.364Z,20.17
2018-10-01T08:17:26.097Z,18.73
2018-10-01T08:19:55.016Z,18.93
2018-10-01T08:22:23.525Z,21.80
2018-10-01T08:24:52.097Z,21.97
2018-10-01T08:27:20.832Z,14.03
2018-10-01T08:29:50.436Z,21.33
2018-10-01T08:32:18.922Z,13.87
2018-10-01T08:34:48.089Z,19.57
2018-10-01T08:37:17.000Z,20.23
2018-10-01T08:39:45.631Z,19.23
2018-10-01T08:42:14.175Z,19.37
2018-10-01T08:44:43.365Z,19.07
2018-10-01T08:47:12.469Z,24.33
2018-10-01T08:49:49.873Z,23.00
2018-10-01T08:52:24.481Z,22.60
2018-10-01T08:54:53.262Z,22.53
2018-10-01T08:57:21.953Z,22.17
2018-10-01T08:59:50.655Z,23.03
2018-10-01T09:02:19.343Z,27.07
2018-10-01T09:04:47.765Z,20.83
2018-10-01T09:07:17.323Z,22.70
2018-10-01T09:09:46.070Z,23.10
2018-10-01T09:12:15.283Z,20.23
2018-10-01T09:14:44.129Z,20.93
2018-10-01T09:17:12.660Z,23.13
2018-10-01T09:19:41.227Z,19.27
2018-10-01T09:22:10.644Z,21.60
2018-10-01T09:24:39.183Z,22.43
2018-10-01T09:27:07.867Z,22.33
2018-10-01T09:29:36.473Z,22.10
2018-10-01T09:32:05.089Z,21.27
2018-10-01T09:34:33.673Z,19.47
2018-10-01T09:37:02.937Z,21.77
2018-10-01T09:39:31.706Z,18.90
2018-10-01T09:42:00.494Z,17.23
2018-10-01T09:44:29.021Z,17.07
2018-10-01T09:46:57.524Z,20.40
2018-10-01T09:49:26.193Z,18.43
2018-10-01T09:51:55.891Z,20.50
2018-10-01T09:54:24.524Z,17.20
2018-10-01T09:56:53.035Z,17.63
2018-10-01T09:59:21.662Z,18.90
2018-10-01T10:01:50.968Z,17.67
2018-10-01T10:04:19.673Z,16.70
2018-10-01T10:06:48.101Z,16.20
2018-10-01T10:09:16.653Z,15.23
2018-10-01T10:11:45.366Z,14.37
2018-10-01T10:14:14.029Z,13.93
2018-10-01T10:16:42.635Z,16.07
2018-10-01T10:19:11.330Z,16.77
2018-10-01T10:21:40.241Z,15.37
2018-10-01T10:24:08.773Z,15.83
2018-10-01T10:26:37.501Z,14.97
2018-10-01T10:29:06.259Z,14.77
2018-10-01T10:31:35.130Z,17.13
2018-10-01T10:34:04.097Z,16.00
2018-10-01T10:36:32.940Z,9.47
2018-10-01T10:39:01.761Z,12.87
2018-10-01T10:41:31.284Z,15.87
2018-10-01T10:44:00.159Z,11.63
2018-10-01T10:46:28.805Z,10.30
2018-10-01T10:48:57.618Z,12.80
2018-10-01T10:51:26.085Z,13.33
2018-10-01T10:53:54.797Z,12.20
2018-10-01T10:56:23.340Z,15.27
2018-10-01T10:58:52.909Z,12.20
2018-10-01T11:01:21.582Z,14.40
2018-10-01T11:03:50.168Z,9.37
2018-10-01T11:06:18.825Z,11.13
2018-10-01T11:08:47.235Z,11.17
2018-10-01T11:11:16.785Z,13.83
2018-10-01T11:13:46.218Z,12.27
2018-10-01T11:16:14.695Z,12.83
2018-10-01T11:18:43.316Z,11.43
2018-10-01T11:21:11.712Z,7.53
2018-10-01T11:23:41.983Z,11.33
2018-10-01T11:26:10.532Z,14.67
2018-10-01T11:28:39.800Z,14.40
2018-10-01T11:31:08.323Z,11.60
2018-10-01T11:33:36.844Z,8.87
2018-10-01T11:36:05.241Z,9.30
2018-10-01T11:38:33.901Z,10.40
2018-10-01T11:41:02.454Z,8.03
2018-10-01T11:43:31.201Z,9.43
2018-10-01T11:46:00.390Z,7.17
2018-10-01T11:48:29.100Z,11.07
2018-10-01T11:50:58.308Z,12.43
2018-10-01T11:53:26.770Z,9.10
2018-10-01T11:57:49.980Z,10.40
2018-10-01T12:00:19.186Z,8.50
2018-10-01T12:02:48.634Z,11.87
2018-10-01T12:05:18.447Z,7.50
2018-10-01T12:07:47.185Z,12.63
2018-10-01T12:10:15.855Z,10.47
2018-10-01T12:12:45.255Z,7.67
2018-10-01T12:15:14.161Z,8.80
2018-10-01T12:17:42.646Z,6.03
2018-10-01T12:20:11.178Z,8.00
2018-10-01T12:22:39.678Z,7.47
2018-10-01T12:25:08.373Z,6.20
2018-10-01T12:27:37.563Z,6.87
2018-10-01T12:30:06.118Z,9.47
2018-10-01T12:32:34.693Z,8.17
2018-10-01T12:35:04.123Z,7.80
2018-10-01T12:37:34.523Z,5.67
2018-10-01T12:40:03.413Z,5.60
2018-10-01T12:42:31.968Z,9.93
2018-10-01T12:45:01.054Z,6.13
2018-10-01T12:47:29.454Z,8.20
2018-10-01T12:49:58.924Z,5.10
2018-10-01T12:52:27.522Z,6.57
2018-10-01T12:54:56.905Z,5.00
2018-10-01T12:57:25.416Z,5.63
2018-10-01T12:59:53.986Z,6.00
2018-10-01T13:02:22.642Z,6.63
2018-10-01T13:04:51.429Z,7.63
2018-10-01T13:07:20.856Z,5.23
2018-10-01T13:09:50.390Z,4.93
2018-10-01T13:12:19.329Z,6.50
2018-10-01T13:14:48.351Z,4.47
2018-10-01T13:17:16.985Z,3.37
2018-10-01T13:19:45.578Z,4.63
2018-10-01T13:22:14.988Z,2.97
2018-10-01T13:24:43.730Z,3.70
2018-10-01T13:27:12.151Z,7.03
2018-10-01T13:29:40.709Z,4.40
2018-10-01T13:32:09.534Z,4.23
2018-10-01T13:34:38.269Z,3.97
2018-10-01T13:37:07.349Z,4.53
2018-10-01T13:39:36.584Z,5.10
2018-10-01T13:42:05.489Z,6.03
2018-10-01T13:44:34.228Z,5.03
2018-10-01T13:47:02.915Z,9.97
2018-10-01T13:49:32.130Z,4.47
2018-10-01T13:52:00.864Z,2.30
2018-10-01T13:54:29.522Z,2.13
2018-10-01T13:56:58.172Z,4.17
2018-10-01T13:59:27.493Z,3.43
2018-10-01T14:01:56.090Z,4.30
2018-10-01T14:04:24.775Z,2.53
2018-10-01T14:06:53.197Z,3.03
2018-10-01T14:09:21.825Z,4.70
2018-10-01T14:11:50.375Z,2.50
2018-10-01T14:14:18.864Z,6.30
2018-10-01T14:16:47.745Z,4.67
2018-10-01T14:19:17.298Z,4.90
2018-10-01T14:21:45.724Z,3.57
2018-10-01T14:24:14.541Z,4.63
2018-10-01T14:26:43.013Z,7.83
2018-10-01T14:29:11.743Z,6.50
2018-10-01T14:31:40.233Z,6.10
2018-10-01T14:34:08.759Z,8.17
2018-10-01T14:36:37.490Z,5.37
2018-10-01T14:39:06.930Z,5.30
2018-10-01T14:41:35.437Z,8.10
2018-10-01T14:44:04.913Z,5.03
2018-10-01T14:46:33.955Z,4.80
2018-10-01T14:49:02.692Z,2.23
2018-10-01T14:51:31.142Z,4.27
2018-10-01T14:54:00.060Z,3.93
2018-10-01T14:56:28.700Z,4.10
2018-10-01T14:58:57.350Z,4.53
2018-10-01T15:01:26.040Z,5.10
2018-10-01T15:03:55.495Z,4.60
2018-10-01T15:06:24.838Z,4.83
2018-10-01T15:08:53.389Z,3.60
2018-10-01T15:11:22.607Z,3.83
2018-10-01T15:13:51.230Z,5.90
2018-10-01T15:16:19.952Z,4.70
2018-10-01T15:18:48.697Z,3.67
2018-10-01T15:21:17.281Z,3.80
2018-10-01T15:23:46.274Z,7.13
2018-10-01T15:26:14.965Z,2.23
2018-10-01T15:28:43.717Z,4.37
2018-10-01T15:31:12.460Z,4.13
2018-10-01T15:33:41.696Z,1.57
2018-10-01T15:36:10.364Z,2.47
2018-10-01T15:38:39.353Z,2.80
2018-10-01T15:41:08.333Z,3.20
2018-10-01T15:43:37.141Z,1.40
2018-10-01T15:46:06.013Z,3.70
2018-10-01T15:48:34.547Z,5.63
2018-10-01T15:51:03.010Z,2.43
2018-10-01T15:53:31.889Z,2.90
2018-10-01T15:56:01.026Z,1.67
2018-10-01T15:58:30.698Z,2.47
2018-10-01T16:00:59.378Z,1.63
2018-10-01T16:03:28.253Z,3.07
2018-10-01T16:05:57.284Z,1.40
2018-10-01T16:08:26.825Z,2.70
2018-10-01T16:10:55.617Z,2.13
2018-10-01T16:13:24.522Z,2.23
2018-10-01T16:15:53.332Z,3.73
2018-10-01T16:18:22.034Z,3.33
2018-10-01T16:20:50.900Z,2.97
2018-10-01T16:23:19.802Z,2.30
2018-10-01T16:25:48.793Z,2.37
2018-10-01T16:28:18.764Z,1.73
2018-10-01T16:30:47.820Z,3.13
2018-10-01T16:33:16.393Z,3.97
2018-10-01T16:35:45.264Z,4.40
2018-10-01T16:38:13.956Z,2.53
2018-10-01T16:40:43.320Z,3.90
2018-10-01T16:43:11.966Z,5.33
2018-10-01T16:45:40.666Z,2.50
2018-10-01T16:48:09.510Z,3.63
2018-10-01T16:50:39.116Z,3.67
2018-10-01T16:53:09.745Z,4.47
2018-10-01T16:55:39.015Z,3.87
2018-10-01T16:58:08.056Z,3.00
2018-10-01T17:00:37.100Z,1.50
2018-10-01T17:03:06.932Z,3.30
2018-10-01T17:05:35.547Z,2.53
2018-10-01T17:08:04.989Z,2.23
2018-10-01T17:10:33.867Z,7.67
2018-10-01T17:13:02.950Z,5.03
2018-10-01T17:15:32.431Z,3.23
2018-10-01T17:18:01.116Z,5.33
2018-10-01T17:20:30.553Z,2.23
2018-10-01T17:23:00.009Z,2.30
2018-10-01T17:25:28.542Z,2.77
2018-10-01T17:27:57.283Z,2.53
2018-10-01T17:30:25.930Z,2.53
2018-10-01T17:32:54.891Z,3.03
2018-10-01T17:35:23.665Z,3.57
2018-10-01T17:37:52.453Z,3.03
2018-10-01T17:40:21.133Z,2.30
2018-10-01T17:42:50.329Z,3.93
2018-10-01T17:45:18.917Z,2.97
2018-10-01T17:47:47.616Z,2.60
2018-10-01T17:50:16.287Z,9.93
2018-10-01T17:52:44.834Z,3.93
2018-10-01T17:55:13.580Z,12.30
2018-10-01T17:57:45.677Z,3.80
2018-10-01T18:00:14.942Z,17.57
2018-10-01T18:02:43.406Z,10.27
2018-10-01T18:05:12.094Z,9.87
2018-10-01T18:07:41.060Z,3.80
2018-10-01T18:10:09.771Z,5.53
2018-10-01T18:12:38.337Z,5.13
2018-10-01T18:15:08.005Z,4.83
2018-10-01T18:17:36.669Z,3.73
2018-10-01T18:20:05.232Z,3.60
2018-10-01T18:22:33.929Z,2.77
2018-10-01T18:25:03.085Z,3.60
2018-10-01T18:27:31.711Z,3.00
2018-10-01T18:30:00.397Z,4.47
2018-10-01T18:32:28.856Z,2.33
2018-10-01T18:34:57.558Z,2.17
2018-10-01T18:37:26.121Z,4.23
2018-10-01T18:39:54.617Z,2.23
2018-10-01T18:42:23.312Z,3.00
2018-10-01T18:44:51.834Z,2.17
2018-10-01T18:47:20.346Z,3.60
2018-10-01T18:49:48.793Z,2.30
2018-10-01T18:52:17.314Z,3.27
2018-10-01T18:54:45.885Z,3.67
2018-10-01T18:57:15.186Z,5.07
2018-10-01T18:59:43.998Z,13.83
2018-10-01T19:02:12.793Z,7.10
2018-10-01T19:04:41.962Z,2.63
2018-10-01T19:07:10.473Z,3.67
2018-10-01T19:09:39.370Z,3.77
2018-10-01T19:12:08.069Z,3.03
2018-10-01T19:14:36.753Z,7.73
2018-10-01T19:17:05.332Z,6.37
2018-10-01T19:19:34.062Z,5.47
2018-10-01T19:22:03.295Z,15.27
2018-10-01T19:24:31.921Z,4.13
2018-10-01T19:27:00.721Z,7.33
2018-10-01T19:29:29.701Z,14.13
2018-10-01T19:31:58.535Z,23.77
2018-10-01T19:34:27.347Z,12.30
2018-10-01T19:36:55.982Z,9.10
2018-10-01T19:39:24.597Z,7.03
2018-10-01T19:41:53.483Z,7.33
2018-10-01T19:44:22.322Z,7.13
2018-10-01T19:46:51.017Z,11.73
2018-10-01T19:49:20.413Z,8.10
2018-10-01T19:51:49.997Z,5.70
2018-10-01T19:54:19.126Z,3.80
2018-10-01T19:56:48.135Z,3.43
2018-10-01T19:59:16.709Z,3.43
2018-10-01T20:01:45.699Z,4.53
2018-10-01T20:04:14.426Z,6.17
2018-10-01T20:06:43.239Z,2.80
2018-10-01T20:09:13.520Z,1.97
2018-10-01T20:11:42.461Z,4.20
2018-10-01T20:14:11.270Z,1.93
2018-10-01T20:16:40.636Z,3.47
2018-10-01T20:19:09.336Z,4.30
2018-10-01T20:21:38.033Z,0.80
2018-10-01T20:24:07.242Z,2.03
2018-10-01T20:26:36.062Z,4.27
2018-10-01T20:29:04.706Z,2.83
2018-10-01T20:31:33.380Z,4.33
2018-10-01T20:34:02.717Z,4.37
2018-10-01T20:36:31.719Z,4.13
2018-10-01T20:39:00.384Z,5.57
2018-10-01T20:41:29.252Z,4.30
2018-10-01T20:43:57.909Z,5.47
2018-10-01T20:46:27.529Z,4.90
2018-10-01T20:48:56.947Z,3.17
2018-10-01T20:51:26.370Z,4.67
2018-10-01T20:53:55.923Z,5.53
2018-10-01T20:56:24.604Z,3.03
2018-10-01T20:58:53.221Z,5.37
2018-10-01T21:01:22.057Z,2.47
2018-10-01T21:03:51.371Z,1.53
2018-10-01T21:06:20.789Z,5.67
2018-10-01T21:08:50.281Z,5.90
2018-10-01T21:11:18.854Z,5.47
2018-10-01T21:13:47.980Z,5.60
2018-10-01T21:16:17.297Z,3.80
2018-10-01T21:18:46.076Z,3.60
2018-10-01T21:21:15.341Z,4.43
2018-10-01T21:23:44.049Z,4.70
2018-10-01T21:26:12.750Z,9.50
2018-10-01T21:28:42.749Z,8.70
2018-10-01T21:31:11.413Z,5.93
2018-10-01T21:33:40.023Z,6.00
2018-10-01T21:36:08.541Z,7.33
2018-10-01T21:38:40.006Z,6.93
2018-10-01T21:41:09.441Z,5.20
2018-10-01T21:43:38.069Z,4.27
2018-10-01T21:46:07.308Z,5.17
2018-10-01T21:48:36.342Z,5.83
2018-10-01T21:51:05.047Z,9.97
2018-10-01T21:53:33.998Z,8.37
2018-10-01T21:56:03.245Z,6.50
2018-10-01T21:58:32.252Z,7.13
2018-10-01T22:01:06.217Z,6.37
2018-10-01T22:03:35.909Z,7.33
2018-10-01T22:06:04.753Z,5.67
2018-10-01T22:08:33.356Z,9.47
2018-10-01T22:11:02.310Z,5.13
2018-10-01T22:13:31.222Z,7.00
2018-10-01T22:15:59.837Z,5.43
2018-10-01T22:18:28.945Z,5.60
2018-10-01T22:20:57.566Z,8.17
2018-10-01T22:23:26.152Z,4.80
2018-10-01T22:25:54.913Z,6.93
2018-10-01T22:28:23.628Z,2.97
2018-10-01T22:30:52.305Z,6.90
2018-10-01T22:33:20.895Z,4.37
2018-10-01T22:35:51.013Z,3.77
2018-10-01T22:38:20.411Z,3.03
2018-10-01T22:40:49.956Z,6.47
2018-10-01T22:43:18.788Z,2.13
2018-10-01T22:45:47.401Z,4.27
2018-10-01T22:48:16.251Z,5.47
2018-10-01T22:50:45.161Z,6.07
2018-10-01T22:53:13.847Z,5.30
2018-10-01T22:55:42.666Z,5.03
2018-10-01T22:58:12.246Z,5.27
2018-10-01T23:00:40.950Z,6.10
2018-10-01T23:03:10.197Z,7.37
2018-10-01T23:05:39.557Z,5.83
2018-10-01T23:08:08.210Z,5.47
2018-10-01T23:10:37.219Z,4.50
2018-10-01T23:13:05.886Z,4.03
2018-10-01T23:15:34.853Z,3.83
2018-10-01T23:18:03.692Z,3.63
2018-10-01T23:20:32.365Z,7.27
2018-10-01T23:23:01.202Z,6.87
2018-10-01T23:25:29.917Z,3.57
2018-10-01T23:27:59.774Z,6.50
2018-10-01T23:30:28.414Z,7.80
2018-10-01T23:32:56.969Z,5.47
2018-10-01T23:35:25.758Z,5.60
2018-10-01T23:37:54.387Z,3.77
2018-10-01T23:40:22.919Z,4.07
2018-10-01T23:42:51.520Z,3.67
2018-10-01T23:45:20.108Z,6.77
2018-10-01T23:47:48.578Z,6.80
2018-10-01T23:50:17.446Z,3.77
2018-10-01T23:52:46.420Z,3.77
2018-10-01T23:55:15.861Z,7.47
2018-10-01T23:57:44.633Z,4.40
